Time;durP1;ratioP1;P1;durP2;ratioP2;P2;SDS_P1;SDS_P2;PMS_P1;PMS_P2;Temp;Humidity;BMP_temperature;BMP_pressure;BME280_temperature;BME280_humidity;BME280_pressure;Samples;Min_cycle;Max_cycle;Signal;HPM_P1;HPM_P2
2021/07/21 00:00:50;;;;;;;26.55;15.60;;;;;;;;;;4345138;32;20163;-85
2021/07/21 00:03:15;;;;;;;30.65;15.82;;;;;;;;;;4345255;32;20227;-85
2021/07/21 00:05:40;;;;;;;25.08;13.98;;;;;;;;;;4344917;33;20158;-85
2021/07/21 00:08:06;;;;;;;23.38;13.40;;;;;;;;;;4344754;33;20163;-85
2021/07/21 00:10:32;;;;;;;24.55;14.05;;;;;;;;;;4345300;32;20194;-85
2021/07/21 00:15:51;;;;;;;23.12;14.15;;;;;;;;;;4358725;33;20196;-85
2021/07/21 00:18:25;;;;;;;25.30;14.50;;;;;;;;;;4345336;32;20158;-85
2021/07/21 00:20:54;;;;;;;22.87;14.13;;;;;;;;;;4345248;32;20641;-85
2021/07/21 00:23:21;;;;;;;23.05;13.20;;;;;;;;;;4344693;32;20193;-85
2021/07/21 00:25:48;;;;;;;23.92;13.75;;;;;;;;;;4345043;32;20166;-85
2021/07/21 00:28:13;;;;;;;23.30;14.18;;;;;;;;;;4344831;32;20189;-85
2021/07/21 00:30:44;;;;;;;26.30;14.93;;;;;;;;;;4359262;32;20135;-85
2021/07/21 00:33:10;;;;;;;23.15;13.48;;;;;;;;;;4345351;33;20194;-85
2021/07/21 00:35:36;;;;;;;24.00;14.45;;;;;;;;;;4344687;32;20615;-85
2021/07/21 00:38:03;;;;;;;21.90;12.88;;;;;;;;;;4344944;32;20230;-86
2021/07/21 00:40:28;;;;;;;22.30;12.85;;;;;;;;;;4344729;32;20190;-85
2021/07/21 00:42:53;;;;;;;25.25;13.93;;;;;;;;;;4344568;33;20179;-85
2021/07/21 00:45:19;;;;;;;21.12;13.02;;;;;;;;;;4345304;33;20158;-85
2021/07/21 00:47:44;;;;;;;21.48;13.35;;;;;;;;;;4344372;32;20194;-85
2021/07/21 00:50:10;;;;;;;20.45;12.55;;;;;;;;;;4344631;32;20533;-85
2021/07/21 00:52:39;;;;;;;22.60;12.27;;;;;;;;;;4344761;33;20162;-85
2021/07/21 00:55:08;;;;;;;21.87;13.25;;;;;;;;;;4343997;32;20226;-86
2021/07/21 00:57:34;;;;;;;20.98;12.07;;;;;;;;;;4344646;32;20552;-85
2021/07/21 00:59:59;;;;;;;22.23;13.93;;;;;;;;;;4346549;32;20159;-85
2021/07/21 01:02:25;;;;;;;20.80;13.10;;;;;;;;;;4347962;33;20223;-85
2021/07/21 01:04:51;;;;;;;25.05;13.82;;;;;;;;;;4346657;32;20194;-85
2021/07/21 01:07:23;;;;;;;20.67;12.48;;;;;;;;;;4348291;32;20603;-85
2021/07/21 01:09:51;;;;;;;22.15;13.40;;;;;;;;;;4346989;32;20155;-85
2021/07/21 01:12:23;;;;;;;20.12;12.57;;;;;;;;;;4347303;32;20641;-85
2021/07/21 01:15:12;;;;;;;21.37;13.38;;;;;;;;;;4344466;32;20232;-84
2021/07/21 01:17:41;;;;;;;19.98;11.38;;;;;;;;;;4342427;32;20163;-84
2021/07/21 01:20:24;;;;;;;22.62;12.93;;;;;;;;;;4344643;32;20167;-84
2021/07/21 01:23:02;;;;;;;19.92;11.57;;;;;;;;;;4338766;32;20213;-84
2021/07/21 01:25:29;;;;;;;21.55;12.43;;;;;;;;;;4355068;33;20169;-84
2021/07/21 01:27:58;;;;;;;21.90;12.07;;;;;;;;;;4346919;33;20578;-85
2021/07/21 01:30:31;;;;;;;24.60;13.05;;;;;;;;;;4344135;32;20167;-84
2021/07/21 01:33:00;;;;;;;23.05;13.60;;;;;;;;;;4332595;33;20155;-84
2021/07/21 01:35:31;;;;;;;21.58;13.07;;;;;;;;;;4332501;33;20162;-84
2021/07/21 01:37:58;;;;;;;21.30;12.35;;;;;;;;;;4333572;33;20185;-84
2021/07/21 01:40:25;;;;;;;20.12;11.95;;;;;;;;;;4332932;32;20285;-84
2021/07/21 01:43:01;;;;;;;21.62;13.13;;;;;;;;;;4332161;33;20172;-84
2021/07/21 01:45:28;;;;;;;22.60;13.00;;;;;;;;;;4332024;33;20186;-85
2021/07/21 01:47:54;;;;;;;20.73;12.27;;;;;;;;;;4331893;33;20170;-85
2021/07/21 01:50:23;;;;;;;22.55;12.80;;;;;;;;;;4331428;33;20596;-84
2021/07/21 01:52:51;;;;;;;23.17;12.75;;;;;;;;;;4327278;33;20206;-85
2021/07/21 01:55:22;;;;;;;23.27;14.07;;;;;;;;;;4374582;32;20673;-85
2021/07/21 01:57:48;;;;;;;21.92;12.75;;;;;;;;;;4408993;32;20166;-85
2021/07/21 02:00:14;;;;;;;20.58;12.05;;;;;;;;;;4408246;32;20157;-85
2021/07/21 02:02:49;;;;;;;21.70;11.50;;;;;;;;;;4422801;32;20130;-85
2021/07/21 02:05:16;;;;;;;22.80;14.10;;;;;;;;;;4408402;32;20193;-85
2021/07/21 02:07:45;;;;;;;21.75;12.95;;;;;;;;;;4408301;32;20161;-85
2021/07/21 02:10:16;;;;;;;22.95;14.25;;;;;;;;;;4408512;32;20501;-84
2021/07/21 02:12:44;;;;;;;17.65;11.70;;;;;;;;;;4407972;32;20231;-85
2021/07/21 02:15:09;;;;;;;21.20;12.32;;;;;;;;;;4408477;32;20158;-85
2021/07/21 02:17:38;;;;;;;20.77;12.00;;;;;;;;;;4408587;32;20193;-85
2021/07/21 02:20:07;;;;;;;21.73;13.18;;;;;;;;;;4408289;32;20178;-85
2021/07/21 02:22:33;;;;;;;20.50;12.73;;;;;;;;;;4408538;32;20226;-85
2021/07/21 02:24:58;;;;;;;17.58;11.02;;;;;;;;;;4408514;32;20165;-85
2021/07/21 02:27:24;;;;;;;20.48;11.93;;;;;;;;;;4408449;32;20219;-85
2021/07/21 02:29:51;;;;;;;20.48;11.45;;;;;;;;;;4321109;32;20516;-85
2021/07/21 02:32:25;;;;;;;19.30;11.88;;;;;;;;;;4330799;32;20199;-86
2021/07/21 02:34:51;;;;;;;19.80;11.75;;;;;;;;;;4316902;33;20167;-85
2021/07/21 02:37:19;;;;;;;21.90;12.13;;;;;;;;;;4330848;32;20457;-85
2021/07/21 02:39:46;;;;;;;20.12;11.38;;;;;;;;;;4317360;33;20195;-85
2021/07/21 02:42:12;;;;;;;20.48;12.55;;;;;;;;;;4332608;33;20140;-88
2021/07/21 02:44:37;;;;;;;19.12;12.00;;;;;;;;;;4320948;32;20168;-86
2021/07/21 02:47:07;;;;;;;19.25;12.20;;;;;;;;;;4320848;32;20163;-87
2021/07/21 02:49:32;;;;;;;19.45;12.32;;;;;;;;;;4319621;32;20237;-86
2021/07/21 02:52:01;;;;;;;19.90;11.85;;;;;;;;;;4316517;33;20180;-85
2021/07/21 02:54:42;;;;;;;25.45;14.23;;;;;;;;;;4349973;32;20199;-87
2021/07/21 02:57:23;;;;;;;21.62;13.82;;;;;;;;;;4387727;32;20166;-85
2021/07/21 02:59:51;;;;;;;20.77;12.70;;;;;;;;;;4390109;32;20201;-85
2021/07/21 03:02:19;;;;;;;22.62;13.82;;;;;;;;;;4394799;32;20244;-85
2021/07/21 03:04:45;;;;;;;19.05;12.50;;;;;;;;;;4394879;32;20156;-85
2021/07/21 03:07:11;;;;;;;24.92;15.15;;;;;;;;;;4394780;32;20182;-85
2021/07/21 03:09:36;;;;;;;23.92;13.93;;;;;;;;;;4395168;32;20160;-86
2021/07/21 03:12:04;;;;;;;26.02;14.65;;;;;;;;;;4384993;32;20669;-86
2021/07/21 03:14:30;;;;;;;25.80;15.32;;;;;;;;;;4399590;32;20208;-85
2021/07/21 03:16:58;;;;;;;23.95;13.93;;;;;;;;;;4394795;32;20483;-85
2021/07/21 03:19:25;;;;;;;21.50;13.25;;;;;;;;;;4394680;32;20175;-84
2021/07/21 03:21:51;;;;;;;22.95;13.55;;;;;;;;;;4395222;32;20272;-85
2021/07/21 03:24:28;;;;;;;27.85;15.88;;;;;;;;;;4395104;32;20292;-85
2021/07/21 03:26:54;;;;;;;23.33;13.93;;;;;;;;;;4392637;32;20224;-85
2021/07/21 03:29:19;;;;;;;28.75;17.90;;;;;;;;;;4395086;32;20163;-86
2021/07/21 03:31:45;;;;;;;24.27;14.40;;;;;;;;;;4393107;32;20206;-86
2021/07/21 03:34:11;;;;;;;25.62;15.80;;;;;;;;;;4393913;32;20062;-85
2021/07/21 03:36:39;;;;;;;25.12;16.23;;;;;;;;;;4382393;32;20163;-85
2021/07/21 03:39:05;;;;;;;28.90;15.85;;;;;;;;;;4394169;32;20207;-85
2021/07/21 03:41:34;;;;;;;24.12;14.87;;;;;;;;;;4394412;32;20610;-85
2021/07/21 03:44:02;;;;;;;24.50;15.40;;;;;;;;;;4397219;32;20190;-84
2021/07/21 03:46:27;;;;;;;25.45;14.95;;;;;;;;;;4360633;32;20201;-85
2021/07/21 03:48:54;;;;;;;25.58;14.98;;;;;;;;;;4360865;32;20584;-86
2021/07/21 03:51:19;;;;;;;28.67;16.27;;;;;;;;;;4359789;32;20261;-84
2021/07/21 03:54:08;;;;;;;25.30;15.40;;;;;;;;;;4359835;32;20213;-84
2021/07/21 03:56:38;;;;;;;28.00;14.57;;;;;;;;;;4352473;32;20236;-85
2021/07/21 03:59:11;;;;;;;28.30;15.90;;;;;;;;;;4359410;32;20151;-85
2021/07/21 04:01:37;;;;;;;25.67;15.13;;;;;;;;;;4359886;32;20151;-85
2021/07/21 04:04:09;;;;;;;27.98;15.13;;;;;;;;;;4359954;32;20166;-85
2021/07/21 04:06:36;;;;;;;25.05;14.57;;;;;;;;;;4359441;32;20299;-85
2021/07/21 04:09:06;;;;;;;26.05;15.20;;;;;;;;;;4359415;32;20238;-85
2021/07/21 04:11:33;;;;;;;30.17;15.82;;;;;;;;;;4359602;32;20154;-84
2021/07/21 04:13:59;;;;;;;28.58;16.25;;;;;;;;;;4359494;32;20181;-85
2021/07/21 04:16:25;;;;;;;29.37;16.73;;;;;;;;;;4360029;32;20615;-85
2021/07/21 04:18:50;;;;;;;31.48;16.60;;;;;;;;;;4359983;32;20252;-84
2021/07/21 04:21:16;;;;;;;28.70;16.30;;;;;;;;;;4359335;32;20154;-83
2021/07/21 04:23:42;;;;;;;27.95;17.02;;;;;;;;;;4359237;32;20154;-84
2021/07/21 04:26:10;;;;;;;27.70;16.27;;;;;;;;;;4359835;32;20171;-84
2021/07/21 04:28:37;;;;;;;28.35;16.83;;;;;;;;;;4359428;32;20201;-84
2021/07/21 04:31:03;;;;;;;32.25;16.52;;;;;;;;;;4359894;32;20186;-84
2021/07/21 04:33:32;;;;;;;26.40;15.68;;;;;;;;;;4360908;32;20162;-85
2021/07/21 04:35:57;;;;;;;30.25;16.25;;;;;;;;;;4362052;32;20207;-85
2021/07/21 04:38:23;;;;;;;26.12;15.98;;;;;;;;;;4375499;32;20147;-84
2021/07/21 04:40:50;;;;;;;27.80;15.88;;;;;;;;;;4361753;32;20163;-84
2021/07/21 04:43:16;;;;;;;27.67;16.25;;;;;;;;;;4362144;32;20147;-84
2021/07/21 04:45:46;;;;;;;26.65;16.73;;;;;;;;;;4361653;32;20444;-84
2021/07/21 04:48:18;;;;;;;30.62;17.65;;;;;;;;;;4362626;32;20250;-84
2021/07/21 04:50:48;;;;;;;34.85;18.73;;;;;;;;;;4362418;32;20155;-84
2021/07/21 04:53:18;;;;;;;30.88;17.02;;;;;;;;;;4375615;32;20149;-84
2021/07/21 04:55:52;;;;;;;32.03;18.05;;;;;;;;;;4362205;32;20198;-84
2021/07/21 04:58:17;;;;;;;26.37;16.20;;;;;;;;;;4361945;32;20496;-84
2021/07/21 05:00:43;;;;;;;26.98;17.05;;;;;;;;;;4361678;32;20151;-84
2021/07/21 05:03:10;;;;;;;24.80;16.23;;;;;;;;;;4362088;32;20493;-81
2021/07/21 05:05:36;;;;;;;26.05;17.23;;;;;;;;;;4362263;32;20187;-85
2021/07/21 05:08:05;;;;;;;27.55;16.10;;;;;;;;;;4361927;32;20158;-84
2021/07/21 05:10:34;;;;;;;27.15;16.42;;;;;;;;;;4361503;32;20151;-84
2021/07/21 05:13:00;;;;;;;31.35;16.55;;;;;;;;;;4361533;32;20591;-83
2021/07/21 05:15:31;;;;;;;26.27;15.65;;;;;;;;;;4361512;32;20185;-84
2021/07/21 05:17:59;;;;;;;24.20;14.55;;;;;;;;;;4361513;32;20615;-83
2021/07/21 05:20:29;;;;;;;25.65;14.95;;;;;;;;;;4350234;33;20588;-84
2021/07/21 05:23:05;;;;;;;24.70;15.20;;;;;;;;;;4355817;32;20726;-83
2021/07/21 05:25:53;;;;;;;24.95;15.95;;;;;;;;;;4347699;33;20178;-85
2021/07/21 05:28:39;;;;;;;25.67;14.10;;;;;;;;;;4344185;33;20553;-84
2021/07/21 05:31:13;;;;;;;28.40;16.10;;;;;;;;;;4350624;32;20705;-82
2021/07/21 05:36:35;;;;;;;26.85;16.23;;;;;;;;;;4360894;32;20152;-83
2021/07/21 05:39:00;;;;;;;25.02;15.90;;;;;;;;;;4361957;32;20159;-84
2021/07/21 05:41:29;;;;;;;23.75;14.95;;;;;;;;;;4345007;32;20340;-83
2021/07/21 05:43:54;;;;;;;28.38;15.45;;;;;;;;;;4383683;32;20181;-85
2021/07/21 05:46:19;;;;;;;23.35;14.40;;;;;;;;;;4403742;32;20503;-85
2021/07/21 05:48:50;;;;;;;22.67;14.73;;;;;;;;;;4423530;32;20308;-84
2021/07/21 05:51:15;;;;;;;21.27;13.85;;;;;;;;;;4386086;32;20175;-84
2021/07/21 05:53:43;;;;;;;24.40;14.75;;;;;;;;;;4345621;33;20584;-84
2021/07/21 05:56:15;;;;;;;25.85;15.60;;;;;;;;;;4353782;32;20197;-84
2021/07/21 05:58:40;;;;;;;26.15;16.12;;;;;;;;;;4353006;32;20604;-84
2021/07/21 06:01:16;;;;;;;26.05;15.43;;;;;;;;;;4344636;33;20181;-84
2021/07/21 06:03:44;;;;;;;24.77;16.40;;;;;;;;;;4332939;32;20163;-83
2021/07/21 06:06:11;;;;;;;26.58;15.18;;;;;;;;;;4333156;33;20159;-84
2021/07/21 06:08:36;;;;;;;24.33;16.05;;;;;;;;;;4367536;32;20507;-84
2021/07/21 06:11:02;;;;;;;28.95;16.62;;;;;;;;;;4343058;33;20159;-83
2021/07/21 06:13:27;;;;;;;26.92;16.35;;;;;;;;;;4346383;33;20584;-82
2021/07/21 06:15:53;;;;;;;23.83;15.23;;;;;;;;;;4345814;33;20661;-85
2021/07/21 06:18:18;;;;;;;26.33;17.20;;;;;;;;;;4346338;33;20591;-84
2021/07/21 06:20:46;;;;;;;29.37;16.25;;;;;;;;;;4348739;33;20159;-84
2021/07/21 06:23:14;;;;;;;28.38;17.30;;;;;;;;;;4372476;32;20244;-85
2021/07/21 06:25:40;;;;;;;28.70;18.23;;;;;;;;;;4385945;32;20194;-83
2021/07/21 06:28:05;;;;;;;28.12;17.00;;;;;;;;;;4372578;32;20164;-85
2021/07/21 06:30:32;;;;;;;30.10;18.67;;;;;;;;;;4344991;33;20222;-84
2021/07/21 06:33:18;;;;;;;26.75;16.62;;;;;;;;;;4344698;32;20485;-86
2021/07/21 06:35:43;;;;;;;27.70;17.70;;;;;;;;;;4363388;32;20287;-84
2021/07/21 06:38:19;;;;;;;27.25;16.65;;;;;;;;;;4369715;32;20155;-84
2021/07/21 06:40:53;;;;;;;28.12;17.67;;;;;;;;;;4336287;32;20163;-84
2021/07/21 06:43:21;;;;;;;25.17;15.70;;;;;;;;;;4346130;32;20189;-84
2021/07/21 06:45:51;;;;;;;23.52;15.77;;;;;;;;;;4333185;33;20633;-84
2021/07/21 06:48:16;;;;;;;24.05;16.67;;;;;;;;;;4345434;33;20159;-84
2021/07/21 06:50:42;;;;;;;24.20;16.17;;;;;;;;;;4345418;33;20183;-84
2021/07/21 06:53:07;;;;;;;29.58;16.20;;;;;;;;;;4333125;33;20246;-83
2021/07/21 06:55:35;;;;;;;23.85;15.68;;;;;;;;;;4344894;33;20285;-83
2021/07/21 06:58:03;;;;;;;27.50;16.98;;;;;;;;;;4345651;32;20208;-84
2021/07/21 07:00:29;;;;;;;27.48;17.33;;;;;;;;;;4359250;32;20449;-84
2021/07/21 07:02:54;;;;;;;27.62;16.10;;;;;;;;;;4345336;33;20163;-84
2021/07/21 07:05:23;;;;;;;29.42;17.83;;;;;;;;;;4358652;33;20553;-84
2021/07/21 07:07:51;;;;;;;27.95;16.52;;;;;;;;;;4345065;33;20604;-84
2021/07/21 07:13:08;;;;;;;26.12;15.68;;;;;;;;;;4340937;33;20167;-83
2021/07/21 07:15:34;;;;;;;25.48;16.35;;;;;;;;;;4332806;33;20167;-82
2021/07/21 07:17:59;;;;;;;22.48;14.85;;;;;;;;;;4344875;33;20220;-83
2021/07/21 07:20:25;;;;;;;22.35;14.23;;;;;;;;;;4345457;33;20206;-83
2021/07/21 07:22:51;;;;;;;22.23;13.62;;;;;;;;;;4345474;32;20162;-83
2021/07/21 07:25:19;;;;;;;24.05;15.63;;;;;;;;;;4345451;33;20585;-83
2021/07/21 07:27:48;;;;;;;20.90;12.93;;;;;;;;;;4358214;33;20170;-84
2021/07/21 07:30:26;;;;;;;;;;;;;;;;;;;;;
2021/07/21 07:32:55;;;;;;;19.48;11.82;;;;;;;;;;4358646;33;20138;-84
2021/07/21 07:35:23;;;;;;;18.45;11.52;;;;;;;;;;4344550;33;20171;-83
2021/07/21 07:37:49;;;;;;;19.35;13.07;;;;;;;;;;4344439;32;20155;-83
2021/07/21 07:40:17;;;;;;;19.95;13.05;;;;;;;;;;4344688;33;20229;-83
2021/07/21 07:42:51;;;;;;;22.62;14.27;;;;;;;;;;4345644;33;20233;-84
2021/07/21 07:45:16;;;;;;;19.73;11.63;;;;;;;;;;4345051;33;20220;-83
2021/07/21 07:47:42;;;;;;;19.08;11.27;;;;;;;;;;4344675;33;20178;-84
2021/07/21 07:50:08;;;;;;;21.15;12.30;;;;;;;;;;4344970;33;20155;-84
2021/07/21 07:52:34;;;;;;;16.50;11.07;;;;;;;;;;4344965;32;20154;-83
2021/07/21 07:55:00;;;;;;;18.25;11.15;;;;;;;;;;4344699;33;20193;-85
2021/07/21 07:57:28;;;;;;;18.67;10.48;;;;;;;;;;4358385;33;20167;-83
2021/07/21 07:59:53;;;;;;;16.25;11.57;;;;;;;;;;4344918;32;20274;-84
2021/07/21 08:02:19;;;;;;;18.67;11.27;;;;;;;;;;4345015;33;20250;-84
2021/07/21 08:04:44;;;;;;;19.70;12.13;;;;;;;;;;4344259;33;20193;-84
2021/07/21 08:07:13;;;;;;;18.80;11.23;;;;;;;;;;4345966;33;20197;-85
2021/07/21 08:09:38;;;;;;;16.65;10.02;;;;;;;;;;4347143;33;20238;-84
2021/07/21 08:12:20;;;;;;;17.17;9.57;;;;;;;;;;4347438;33;20181;-84
2021/07/21 08:14:45;;;;;;;14.48;9.18;;;;;;;;;;4346063;33;20229;-85
2021/07/21 08:17:10;;;;;;;16.33;9.52;;;;;;;;;;4347282;33;20163;-82
2021/07/21 08:19:39;;;;;;;15.07;9.75;;;;;;;;;;4345943;32;20202;-83
2021/07/21 08:22:05;;;;;;;17.05;10.32;;;;;;;;;;4346907;33;20190;-83
2021/07/21 08:27:48;;;;;;;17.15;10.48;;;;;;;;;;4360228;32;20598;-82
2021/07/21 08:30:33;;;;;;;14.93;9.98;;;;;;;;;;4360466;32;20163;-83
2021/07/21 08:33:12;;;;;;;18.02;10.75;;;;;;;;;;4346258;33;20186;-82
2021/07/21 08:35:37;;;;;;;16.65;10.05;;;;;;;;;;4345375;33;20159;-85
2021/07/21 08:38:06;;;;;;;15.73;9.90;;;;;;;;;;4347084;33;20201;-84
2021/07/21 08:40:31;;;;;;;14.65;8.55;;;;;;;;;;4347281;33;20151;-83
2021/07/21 08:42:57;;;;;;;12.93;8.48;;;;;;;;;;4347370;33;20237;-84
2021/07/21 08:45:23;;;;;;;20.42;10.00;;;;;;;;;;4386062;32;20166;-83
2021/07/21 08:47:57;;;;;;;14.25;7.95;;;;;;;;;;4380756;32;20155;-83
2021/07/21 08:50:23;;;;;;;12.77;7.75;;;;;;;;;;4351976;33;20162;-83
2021/07/21 08:52:50;;;;;;;13.27;7.70;;;;;;;;;;4351316;32;20174;-83
2021/07/21 08:55:16;;;;;;;13.32;7.55;;;;;;;;;;4346884;32;20255;-84
2021/07/21 08:57:41;;;;;;;14.38;7.93;;;;;;;;;;4354922;32;20167;-84
2021/07/21 09:00:14;;;;;;;13.15;7.62;;;;;;;;;;4347842;33;20284;-83
2021/07/21 09:02:40;;;;;;;15.35;8.23;;;;;;;;;;4346817;33;20158;-84
2021/07/21 09:05:07;;;;;;;15.13;8.35;;;;;;;;;;4347588;32;20194;-84
2021/07/21 09:07:36;;;;;;;12.60;7.90;;;;;;;;;;4347143;32;20185;-84
2021/07/21 09:10:08;;;;;;;11.55;7.32;;;;;;;;;;4347077;32;20175;-84
2021/07/21 09:12:42;;;;;;;13.25;8.13;;;;;;;;;;4346969;33;20189;-83
2021/07/21 09:15:10;;;;;;;14.07;7.82;;;;;;;;;;4348235;32;20198;-83
2021/07/21 09:17:35;;;;;;;14.25;7.97;;;;;;;;;;4343861;32;20234;-84
2021/07/21 09:20:01;;;;;;;12.45;6.47;;;;;;;;;;4343913;32;20641;-84
2021/07/21 09:22:34;;;;;;;12.27;7.65;;;;;;;;;;4368992;32;20219;-83
2021/07/21 09:25:12;;;;;;;11.80;7.18;;;;;;;;;;4352343;32;20151;-84
2021/07/21 09:27:38;;;;;;;12.95;7.32;;;;;;;;;;4364220;32;20158;-84
2021/07/21 09:30:05;;;;;;;12.50;8.18;;;;;;;;;;4355589;32;20155;-82
2021/07/21 09:32:30;;;;;;;14.38;7.72;;;;;;;;;;4361693;32;20171;-83
2021/07/21 09:34:56;;;;;;;15.27;7.75;;;;;;;;;;4362887;32;20542;-83
2021/07/21 09:37:21;;;;;;;11.50;7.00;;;;;;;;;;4363220;32;20156;-83
2021/07/21 09:39:50;;;;;;;12.07;7.40;;;;;;;;;;4365297;32;20205;-83
2021/07/21 09:42:16;;;;;;;12.30;7.20;;;;;;;;;;4363415;32;20190;-83
2021/07/21 09:44:42;;;;;;;15.65;7.95;;;;;;;;;;4365467;32;20185;-84
2021/07/21 09:47:25;;;;;;;10.93;6.65;;;;;;;;;;4360347;32;20186;-83
2021/07/21 09:50:10;;;;;;;13.65;8.82;;;;;;;;;;4353984;32;20261;-83
2021/07/21 09:52:44;;;;;;;14.77;8.68;;;;;;;;;;4331060;32;20194;-83
2021/07/21 09:55:10;;;;;;;14.07;8.13;;;;;;;;;;4328732;33;20179;-85
2021/07/21 09:57:36;;;;;;;15.32;8.13;;;;;;;;;;4328839;32;20187;-82
2021/07/21 10:00:18;;;;;;;12.60;8.48;;;;;;;;;;4332228;32;20515;-83
2021/07/21 10:02:44;;;;;;;14.77;8.38;;;;;;;;;;4330767;33;20194;-84
2021/07/21 10:05:10;;;;;;;12.70;8.07;;;;;;;;;;4328505;33;20234;-84
2021/07/21 10:10:17;;;;;;;14.38;8.60;;;;;;;;;;4329645;33;20573;-83
2021/07/21 10:12:46;;;;;;;15.13;9.63;;;;;;;;;;4328583;33;20155;-83
2021/07/21 10:15:19;;;;;;;14.25;7.22;;;;;;;;;;4328320;33;20202;-83
2021/07/21 10:17:44;;;;;;;15.10;7.32;;;;;;;;;;4328271;32;20160;-83
2021/07/21 10:20:10;;;;;;;15.15;8.57;;;;;;;;;;4334499;33;20155;-83
2021/07/21 10:22:35;;;;;;;14.55;9.27;;;;;;;;;;4343440;33;20186;-84
2021/07/21 10:25:00;;;;;;;12.75;8.30;;;;;;;;;;4343033;33;20152;-84
2021/07/21 10:27:26;;;;;;;15.88;9.65;;;;;;;;;;4344875;33;20144;-83
2021/07/21 10:29:54;;;;;;;14.32;8.70;;;;;;;;;;4343170;33;20190;-83
2021/07/21 10:32:24;;;;;;;16.02;9.35;;;;;;;;;;4342842;33;20220;-83
2021/07/21 10:34:53;;;;;;;14.07;8.68;;;;;;;;;;4343849;33;20651;-84
2021/07/21 10:37:29;;;;;;;13.52;8.18;;;;;;;;;;4343029;33;20151;-84
2021/07/21 10:39:58;;;;;;;14.10;8.77;;;;;;;;;;4334932;33;20170;-85
2021/07/21 10:42:29;;;;;;;14.75;8.73;;;;;;;;;;4332627;33;20208;-84
2021/07/21 10:44:55;;;;;;;15.10;8.13;;;;;;;;;;4333026;33;20171;-84
2021/07/21 10:47:31;;;;;;;17.45;7.50;;;;;;;;;;4328592;33;20168;-84
2021/07/21 10:50:09;;;;;;;13.48;8.23;;;;;;;;;;4326142;33;20193;-82
2021/07/21 10:53:01;;;;;;;11.80;8.30;;;;;;;;;;4341846;33;20163;-84
2021/07/21 10:55:34;;;;;;;12.07;8.23;;;;;;;;;;4342534;33;20172;-84
2021/07/21 11:00:54;;;;;;;13.13;8.18;;;;;;;;;;4344385;33;20181;-86
2021/07/21 11:03:22;;;;;;;12.88;7.57;;;;;;;;;;4343111;33;20163;-83
2021/07/21 11:06:08;;;;;;;13.50;7.93;;;;;;;;;;4342548;33;20185;-83
2021/07/21 11:08:44;;;;;;;12.37;8.13;;;;;;;;;;4343280;33;20174;-84
2021/07/21 11:11:16;;;;;;;13.15;8.57;;;;;;;;;;4342916;33;20216;-84
2021/07/21 11:13:41;;;;;;;11.18;7.22;;;;;;;;;;4336188;33;20152;-84
2021/07/21 11:16:27;;;;;;;13.73;7.47;;;;;;;;;;4327954;33;20541;-84
2021/07/21 11:18:53;;;;;;;12.20;7.65;;;;;;;;;;4328341;33;20646;-85
2021/07/21 11:21:20;;;;;;;13.68;8.30;;;;;;;;;;4327820;33;20152;-83
2021/07/21 11:23:46;;;;;;;12.55;8.38;;;;;;;;;;4328070;33;20217;-85
2021/07/21 11:29:30;;;;;;;13.23;7.07;;;;;;;;;;4331925;33;20210;-85
2021/07/21 11:31:55;;;;;;;10.73;6.85;;;;;;;;;;4328011;33;20187;-84
2021/07/21 11:34:36;;;;;;;12.13;7.12;;;;;;;;;;4335445;33;20174;-84
2021/07/21 11:37:35;;;;;;;13.02;7.97;;;;;;;;;;4328549;32;20152;-85
2021/07/21 11:40:13;;;;;;;12.65;7.65;;;;;;;;;;4327978;33;20619;-84
2021/07/21 11:43:01;;;;;;;12.35;7.78;;;;;;;;;;4328191;33;20144;-84
2021/07/21 11:45:33;;;;;;;10.32;6.95;;;;;;;;;;4327715;33;20666;-84
2021/07/21 11:48:06;;;;;;;14.70;8.27;;;;;;;;;;4329485;33;20129;-84
2021/07/21 11:50:32;;;;;;;12.63;7.75;;;;;;;;;;4340435;33;20151;-83
2021/07/21 11:53:16;;;;;;;13.77;7.93;;;;;;;;;;4342614;33;20147;-84
2021/07/21 11:56:02;;;;;;;14.45;7.80;;;;;;;;;;4358693;33;20139;-83
2021/07/21 11:58:31;;;;;;;11.20;8.13;;;;;;;;;;4336157;32;20251;-85
2021/07/21 12:00:56;;;;;;;10.98;7.28;;;;;;;;;;4331488;32;20183;-84
2021/07/21 12:03:21;;;;;;;12.82;9.00;;;;;;;;;;4335535;33;20162;-85
2021/07/21 12:05:54;;;;;;;10.95;7.22;;;;;;;;;;4341262;32;20189;-84
2021/07/21 12:08:19;;;;;;;11.77;8.07;;;;;;;;;;4336142;32;20206;-84
2021/07/21 12:11:07;;;;;;;;;;;;;;;;;;;;;
2021/07/21 12:13:42;;;;;;;11.73;7.93;;;;;;;;;;4345081;32;20140;-82
2021/07/21 12:16:31;;;;;;;9.93;7.28;;;;;;;;;;4331875;32;20154;-84
2021/07/21 12:19:01;;;;;;;12.55;7.20;;;;;;;;;;4325252;33;20182;-85
2021/07/21 12:21:33;;;;;;;10.95;7.05;;;;;;;;;;4344820;33;20236;-82
2021/07/21 12:24:03;;;;;;;9.52;6.70;;;;;;;;;;4332569;32;20152;-83
2021/07/21 12:26:45;;;;;;;9.70;7.03;;;;;;;;;;4340718;32;20212;-83
2021/07/21 12:29:13;;;;;;;11.73;7.30;;;;;;;;;;4337675;32;20682;-85
2021/07/21 12:31:38;;;;;;;8.52;6.80;;;;;;;;;;4342800;32;20183;-85
2021/07/21 12:34:22;;;;;;;11.40;7.62;;;;;;;;;;4339388;32;20155;-84
2021/07/21 12:37:13;;;;;;;12.10;6.60;;;;;;;;;;4345421;32;20206;-84
2021/07/21 12:43:05;;;;;;;10.50;6.93;;;;;;;;;;4326565;33;20181;-84
2021/07/21 12:45:45;;;;;;;12.15;8.43;;;;;;;;;;4314523;33;20253;-84
2021/07/21 12:48:21;;;;;;;11.82;8.45;;;;;;;;;;4314263;33;20182;-84
2021/07/21 12:50:56;;;;;;;12.55;7.25;;;;;;;;;;4329502;33;20163;-84
2021/07/21 12:53:33;;;;;;;11.10;8.75;;;;;;;;;;4343554;32;20147;-85
2021/07/21 12:55:59;;;;;;;11.45;8.27;;;;;;;;;;4332171;33;20167;-85
2021/07/21 12:58:43;;;;;;;12.00;7.72;;;;;;;;;;4332650;32;20541;-85
2021/07/21 13:01:30;;;;;;;10.95;7.20;;;;;;;;;;4332638;33;20284;-85
2021/07/21 13:04:15;;;;;;;11.50;8.30;;;;;;;;;;4331797;33;20189;-84
2021/07/21 13:06:47;;;;;;;11.20;7.55;;;;;;;;;;4332841;33;20221;-84
2021/07/21 13:09:12;;;;;;;16.20;7.30;;;;;;;;;;4332083;33;20158;-85
2021/07/21 13:11:38;;;;;;;11.05;7.68;;;;;;;;;;4345616;33;20212;-84
2021/07/21 13:14:39;;;;;;;12.00;7.87;;;;;;;;;;4332303;33;20171;-84
2021/07/21 13:17:26;;;;;;;13.62;8.15;;;;;;;;;;4334346;32;20159;-84
2021/07/21 13:20:06;;;;;;;12.10;8.13;;;;;;;;;;4332812;32;20256;-86
2021/07/21 13:22:32;;;;;;;18.20;7.37;;;;;;;;;;4333833;32;20163;-88
2021/07/21 13:25:10;;;;;;;13.65;8.40;;;;;;;;;;4348081;33;20169;-87
2021/07/21 13:27:35;;;;;;;10.68;8.20;;;;;;;;;;4334550;33;20186;-87
2021/07/21 13:30:27;;;;;;;;;;;;;;;;;;;;;
2021/07/21 13:32:52;;;;;;;11.98;8.00;;;;;;;;;;4337939;32;20144;-85
2021/07/21 13:41:28;;;;;;;12.05;8.07;;;;;;;;;;4324327;32;20156;-86
2021/07/21 13:43:54;;;;;;;12.00;8.75;;;;;;;;;;4399549;32;20189;-87
2021/07/21 13:46:48;;;;;;;12.80;8.27;;;;;;;;;;4332856;32;20160;-85
2021/07/21 13:49:30;;;;;;;13.40;8.52;;;;;;;;;;4336660;32;20163;-85
2021/07/21 13:52:03;;;;;;;12.45;8.93;;;;;;;;;;4408350;32;20185;-84
2021/07/21 13:54:33;;;;;;;11.30;7.75;;;;;;;;;;4401512;32;20625;-84
2021/07/21 13:57:01;;;;;;;11.75;7.93;;;;;;;;;;4384131;32;20186;-85
2021/07/21 13:59:27;;;;;;;12.73;8.32;;;;;;;;;;4346118;32;20174;-86
2021/07/21 14:01:54;;;;;;;10.48;8.30;;;;;;;;;;4319132;33;20453;-85
2021/07/21 14:04:19;;;;;;;16.52;9.20;;;;;;;;;;4331001;33;20159;-85
2021/07/21 14:06:48;;;;;;;12.30;8.25;;;;;;;;;;4344922;32;20155;-85
2021/07/21 14:12:22;;;;;;;13.98;8.73;;;;;;;;;;4346037;33;20205;-85
2021/07/21 14:14:53;;;;;;;12.30;8.38;;;;;;;;;;4331319;33;20160;-86
2021/07/21 14:17:21;;;;;;;12.05;8.88;;;;;;;;;;4331045;33;20148;-86
2021/07/21 14:19:48;;;;;;;12.82;8.27;;;;;;;;;;4332427;32;20160;-85
2021/07/21 14:25:49;;;;;;;;;;;;;;;;;;;;;
2021/07/21 14:28:21;;;;;;;13.23;7.68;;;;;;;;;;4338418;33;20159;-84
2021/07/21 14:31:26;;;;;;;;;;;;;;;;;;;;;
2021/07/21 14:33:52;;;;;;;15.88;10.23;;;;;;;;;;4349096;32;20155;-85
2021/07/21 14:36:24;;;;;;;12.18;8.50;;;;;;;;;;4331245;33;20156;-85
2021/07/21 14:39:16;;;;;;;14.82;9.15;;;;;;;;;;4344288;33;20135;-84
2021/07/21 14:41:53;;;;;;;11.30;8.45;;;;;;;;;;4331040;33;20163;-85
2021/07/21 14:44:51;;;;;;;;;;;;;;;;;;;;;
2021/07/21 14:47:17;;;;;;;11.02;8.00;;;;;;;;;;4319952;32;20148;-85
2021/07/21 14:53:10;;;;;;;10.98;8.32;;;;;;;;;;4335320;33;20158;-85
2021/07/21 14:55:35;;;;;;;11.20;8.60;;;;;;;;;;4331892;33;20179;-83
2021/07/21 14:58:11;;;;;;;14.07;9.85;;;;;;;;;;4330959;33;20186;-83
2021/07/21 15:00:44;;;;;;;13.60;9.52;;;;;;;;;;4330882;33;20236;-82
2021/07/21 15:03:13;;;;;;;13.62;9.35;;;;;;;;;;4330827;33;20179;-82
2021/07/21 15:05:39;;;;;;;13.68;10.35;;;;;;;;;;4330489;32;20186;-82
2021/07/21 15:08:09;;;;;;;15.63;10.70;;;;;;;;;;4328938;32;20215;-82
2021/07/21 15:11:00;;;;;;;15.00;10.90;;;;;;;;;;4333667;33;20193;-81
2021/07/21 15:13:25;;;;;;;19.48;12.18;;;;;;;;;;4327985;33;20171;-82
2021/07/21 15:15:51;;;;;;;16.67;12.30;;;;;;;;;;4393508;32;20167;-80
2021/07/21 15:18:18;;;;;;;18.75;13.10;;;;;;;;;;4329027;33;20221;-82
2021/07/21 15:20:43;;;;;;;19.85;13.75;;;;;;;;;;4357800;32;20199;-83
2021/07/21 15:23:11;;;;;;;22.05;14.25;;;;;;;;;;4407335;32;20166;-83
2021/07/21 15:25:36;;;;;;;18.83;13.02;;;;;;;;;;4394480;32;20170;-82